• Join FlightAware (Why Join?)
  • Login
  • US Flag 
Rudolph Flight #1: Arrived! 
09:44AM EST


 

Airport Tracker/Info


-or-


 

Live Flight TrackerFlight Track Log ✈ EJA618 ✈ 17-Jul-2013 ✈ KROC - KHPN

Flight Track Log - Related Links

Times and Time Zones

All times are in EDT time to prevent confusion due to time zone crossing. See the EJA618 flight status page for this flight to view local times or setup timezone preferences in your user account.

Time Position Orientation Groundspeed Altitude Reporting Facility
EDT Latitude Longitude Course Direction KTS MPH feet Rate Location/Type
06:59AM 43.1200 -77.6878 251° West 138 159 1,300  Level Cleveland Center
07:00AM 43.1050 -77.7481 251° West 248 285 3,700 3,240 Climbing Cleveland Center
07:01AM 43.0481 -77.7194 160° South 245 282 7,100 3,180 Climbing Cleveland Center
07:02AM 43.0183 -77.6158 111° Southeast 199 229 10,100 2,940 Climbing Cleveland Center
07:03AM 42.9842 -77.5094 114° Southeast 248 285 13,000 2,700 Climbing Cleveland Center
07:04AM 42.9500 -77.4033 114° Southeast 280 322 15,500 2,100 Climbing Cleveland Center
07:05AM 42.9156 -77.2861 112° Southeast 309 356 17,300 1,680 Climbing Cleveland Center
07:06AM 42.8767 -77.1661 114° Southeast 328 377 18,900 1,620 Climbing Cleveland Center
07:07AM 42.8375 -77.0408 113° Southeast 348 400 20,600 1,560 Climbing Cleveland Center
07:09AM 42.8181 -76.8792 99° East 356 410 22,600 1,020 Climbing Boston Center
07:10AM 42.8153 -76.7403 92° East 362 417 23,000 180 Climbing Boston Center
07:11AM 42.8111 -76.5700 92° East 382 440 23,000  Level Boston Center
07:12AM 42.8042 -76.4139 93° East 400 460 23,000  Level Boston Center
07:13AM 42.7544 -76.2833 117° Southeast 409 471 23,000  Level Boston Center
07:14AM 42.6908 -76.1267 119° Southeast 414 476 23,000  Level Boston Center
07:15AM 42.6267 -75.9819 121° Southeast 437 503 23,000  Level Boston Center
07:16AM 42.5664 -75.8403 120° Southeast 437 503 23,000 -120 Level Boston Center
07:17AM 42.5058 -75.7017 121° Southeast 437 503 22,800 -1,620 Descending Boston Center
07:18AM 42.4489 -75.5692 120° Southeast 426 490 19,800 -2,400 Descending Boston Center
07:19AM 42.3939 -75.4483 122° Southeast 407 468 18,000 -900 Descending Boston Center
07:20AM 42.3389 -75.3192 120° Southeast 392 451 18,000  Level Boston Center
07:21AM 42.2878 -75.1989 120° Southeast 404 465 18,000  Level Boston Center
07:22AM 42.2203 -75.0531 122° Southeast 411 473 18,000  Level Boston Center
07:23AM 42.1628 -74.9189 120° Southeast 411 473 18,000  Level Boston Center
07:24AM 42.1111 -74.7994 120° Southeast 411 473 18,000 -240 Level Boston Center
07:25AM 42.0494 -74.6544 120° Southeast 406 467 17,600 -1,140 Descending Boston Center
07:26AM 42.0036 -74.5439 119° Southeast 400 460 15,800 -2,100 Descending Boston Center
07:27AM 41.9456 -74.4081 120° Southeast 388 447 13,400 -2,280 Descending Boston Center
07:28AM 41.9017 -74.3006 119° Southeast 377 434 11,300 -1,680 Descending Boston Center
07:29AM 41.8303 -74.1897 131° Southeast 356 410 10,100 -600 Descending Boston Center
07:30AM 41.7522 -74.1292 150° Southeast 356 410 10,100  Level Boston Center
07:31AM 41.6656 -74.0603 149° Southeast 356 410 10,100 -420 Level Boston Center
07:32AM 41.5831 -73.9969 150° Southeast 326 375 9,300 -1,080 Descending Boston Center
07:32AM 41.5333 -73.9667 155° Southeast 297 342 8,400 -1,560 Descending New York TRACON
07:33AM 41.4667 -73.9000 143° Southeast 294 338 6,800 -1,200 Descending New York TRACON
07:34AM 41.4000 -73.8500 151° Southeast 287 330 6,100 -420 Descending New York TRACON
07:35AM 41.3333 -73.8000 151° Southeast 291 335 6,100 -660 Level New York TRACON
07:36AM 41.2667 -73.7333 143° Southeast 276 318 4,800 -1,440 Descending New York TRACON
07:37AM 41.2167 -73.6833 143° Southeast 259 298 3,100 -900 Descending New York TRACON
07:38AM 41.1500 -73.6167 143° Southeast 264 304 3,100  Level New York TRACON
07:39AM 41.0833 -73.5833 159° South 258 297 3,100 -540 Level New York TRACON
07:40AM 41.0333 -73.6167 207° Southwest 206 237 2,100 -900 Descending New York TRACON
07:41AM 41.0000 -73.6500 217° Southwest 191 220 1,300 -600 Descending New York TRACON
07:42AM 41.0333 -73.6833 323° Northwest 124 143 1,000 -300 Descending New York TRACON
07:44AM 41.0667 -73.7000 298° West  Level FlightAware Approximate
07:51AM 41.0669 -73.7076 298° West  Level Estimated
07:52AM 41.0667 -73.7000 298° West  Level FlightAware Approximate